Hovedside
METAR-TAF:

METAR-TAF

Lufthavner :

Palanga, Litauen

Palanga internasjonale lufthavn

breddegrad: 55-55-12N, lengdegrad: 021-03E, høyde over havet: 10 m

Gjeldene værobservasjon

Denne rapporten ble laget for 11 minutter siden, klokken 21:20 UTC
Vind 4 kt fra Nord-nordøst
Temperatur -16°C
Luftfuktighet 84%
Trykk 1034 hPa
Sikt 10 km eller mer

METAR: EYPA 242120Z AUTO 03004KT 9999 NCD M16/M18 Q1034

Tid: 23:31 (21:31 UTC)

Varsel

Denne rapporten ble laget for 4 timer og 30 minutter siden, klokken 17:01 UTC
Varsel gyldig fra 24. klokken 18 UTC til 25. klokken 18 UTC
Vind 12 kt fra Nord-nordøst
Sikt: 9000 m
Brutte skyer i en høyde av 1500 ft

TAF: EYPA 241701Z 2418/2518 03012KT 9000 BKN015

Værobservasjoner og værvarsel for over 4000 flyplasser (METAR- og TAF-rapporter).

Tilgjengelige stasjoner er representert av de røde og gule prikkene på kartet.

Hold musepekeren over prikken for å se navnet på stasjonen.

Klikk så for å se værobservasjoner og -varsler.

For å forandre kartet kan du klikke på den grønne knappen med svart kryss for å zoome inn, på den grønne knappen med strek for å zoome ut, eller på de grønne pilene for å se tilstøtende kart.


METAR-TAF: